sensor_id;sensor_type;location;lat;lon;timestamp;P1;durP1;ratioP1;P2;durP2;ratioP2
58366;SDS011;57745;42.524;12.052;2023-07-31T00:00:35;4.53;;;2.40;;
58366;SDS011;57745;42.524;12.052;2023-07-31T00:03:00;5.68;;;2.40;;
58366;SDS011;57745;42.524;12.052;2023-07-31T00:05:26;7.90;;;2.78;;
58366;SDS011;57745;42.524;12.052;2023-07-31T00:07:51;8.00;;;2.42;;
58366;SDS011;57745;42.524;12.052;2023-07-31T00:10:19;4.78;;;2.33;;
58366;SDS011;57745;42.524;12.052;2023-07-31T00:12:44;6.07;;;2.65;;
58366;SDS011;57745;42.524;12.052;2023-07-31T00:15:10;4.00;;;2.42;;
58366;SDS011;57745;42.524;12.052;2023-07-31T00:17:36;4.72;;;2.50;;
58366;SDS011;57745;42.524;12.052;2023-07-31T00:20:02;7.60;;;2.70;;
58366;SDS011;57745;42.524;12.052;2023-07-31T00:22:28;6.82;;;2.65;;
58366;SDS011;57745;42.524;12.052;2023-07-31T00:24:53;5.40;;;2.90;;
58366;SDS011;57745;42.524;12.052;2023-07-31T00:27:19;5.25;;;3.08;;
58366;SDS011;57745;42.524;12.052;2023-07-31T00:29:44;5.57;;;2.47;;
58366;SDS011;57745;42.524;12.052;2023-07-31T00:32:10;6.53;;;2.65;;
58366;SDS011;57745;42.524;12.052;2023-07-31T00:34:35;3.97;;;2.47;;
58366;SDS011;57745;42.524;12.052;2023-07-31T00:37:01;5.55;;;2.75;;
58366;SDS011;57745;42.524;12.052;2023-07-31T00:39:26;4.47;;;3.05;;
58366;SDS011;57745;42.524;12.052;2023-07-31T00:41:52;4.78;;;2.75;;
58366;SDS011;57745;42.524;12.052;2023-07-31T00:44:17;8.52;;;3.10;;
58366;SDS011;57745;42.524;12.052;2023-07-31T00:46:43;6.43;;;2.63;;
58366;SDS011;57745;42.524;12.052;2023-07-31T00:49:08;5.85;;;2.75;;
58366;SDS011;57745;42.524;12.052;2023-07-31T00:51:35;6.38;;;3.00;;
58366;SDS011;57745;42.524;12.052;2023-07-31T00:54:00;5.05;;;3.08;;
58366;SDS011;57745;42.524;12.052;2023-07-31T00:56:27;6.90;;;3.08;;
58366;SDS011;57745;42.524;12.052;2023-07-31T00:58:54;3.95;;;2.60;;
58366;SDS011;57745;42.524;12.052;2023-07-31T01:01:20;6.10;;;2.65;;
58366;SDS011;57745;42.524;12.052;2023-07-31T01:03:46;5.80;;;3.10;;
58366;SDS011;57745;42.524;12.052;2023-07-31T01:09:03;6.55;;;3.50;;
58366;SDS011;57745;42.524;12.052;2023-07-31T01:11:51;6.15;;;2.95;;
58366;SDS011;57745;42.524;12.052;2023-07-31T01:14:18;4.72;;;3.00;;
58366;SDS011;57745;42.524;12.052;2023-07-31T01:16:44;7.95;;;3.25;;
58366;SDS011;57745;42.524;12.052;2023-07-31T01:19:09;5.63;;;3.25;;
58366;SDS011;57745;42.524;12.052;2023-07-31T01:27:17;4.95;;;2.92;;
58366;SDS011;57745;42.524;12.052;2023-07-31T01:30:00;6.93;;;3.10;;
58366;SDS011;57745;42.524;12.052;2023-07-31T01:32:40;4.20;;;2.63;;
58366;SDS011;57745;42.524;12.052;2023-07-31T01:35:07;5.43;;;3.20;;
58366;SDS011;57745;42.524;12.052;2023-07-31T01:37:33;5.40;;;3.15;;
58366;SDS011;57745;42.524;12.052;2023-07-31T01:39:59;5.45;;;3.08;;
58366;SDS011;57745;42.524;12.052;2023-07-31T01:42:24;5.93;;;3.50;;
58366;SDS011;57745;42.524;12.052;2023-07-31T01:44:50;6.30;;;2.83;;
58366;SDS011;57745;42.524;12.052;2023-07-31T01:47:15;6.30;;;2.97;;
58366;SDS011;57745;42.524;12.052;2023-07-31T01:49:41;6.18;;;2.97;;
58366;SDS011;57745;42.524;12.052;2023-07-31T01:52:06;8.85;;;3.10;;
58366;SDS011;57745;42.524;12.052;2023-07-31T01:54:32;5.25;;;3.30;;
58366;SDS011;57745;42.524;12.052;2023-07-31T01:56:58;5.07;;;3.17;;
58366;SDS011;57745;42.524;12.052;2023-07-31T01:59:24;6.53;;;3.13;;
58366;SDS011;57745;42.524;12.052;2023-07-31T02:01:49;4.68;;;3.13;;
58366;SDS011;57745;42.524;12.052;2023-07-31T02:04:15;7.20;;;3.13;;
58366;SDS011;57745;42.524;12.052;2023-07-31T02:06:40;6.43;;;3.42;;
58366;SDS011;57745;42.524;12.052;2023-07-31T02:09:06;8.55;;;3.60;;
58366;SDS011;57745;42.524;12.052;2023-07-31T02:11:31;5.32;;;3.17;;
58366;SDS011;57745;42.524;12.052;2023-07-31T02:13:56;4.45;;;2.97;;
58366;SDS011;57745;42.524;12.052;2023-07-31T02:16:22;7.15;;;3.33;;
58366;SDS011;57745;42.524;12.052;2023-07-31T02:18:47;12.70;;;3.88;;
58366;SDS011;57745;42.524;12.052;2023-07-31T02:21:13;6.82;;;3.25;;
58366;SDS011;57745;42.524;12.052;2023-07-31T02:23:38;4.10;;;3.50;;
58366;SDS011;57745;42.524;12.052;2023-07-31T02:26:04;6.18;;;3.38;;
58366;SDS011;57745;42.524;12.052;2023-07-31T02:28:30;4.72;;;3.33;;
58366;SDS011;57745;42.524;12.052;2023-07-31T02:30:55;10.85;;;3.28;;
58366;SDS011;57745;42.524;12.052;2023-07-31T02:33:22;6.03;;;3.85;;
58366;SDS011;57745;42.524;12.052;2023-07-31T02:35:47;6.50;;;3.83;;
58366;SDS011;57745;42.524;12.052;2023-07-31T02:38:12;7.43;;;4.07;;
58366;SDS011;57745;42.524;12.052;2023-07-31T02:40:39;6.18;;;3.75;;
58366;SDS011;57745;42.524;12.052;2023-07-31T02:43:06;6.95;;;4.03;;
58366;SDS011;57745;42.524;12.052;2023-07-31T02:45:32;6.20;;;3.60;;
58366;SDS011;57745;42.524;12.052;2023-07-31T02:47:57;6.65;;;3.63;;
58366;SDS011;57745;42.524;12.052;2023-07-31T02:50:23;13.95;;;4.13;;
58366;SDS011;57745;42.524;12.052;2023-07-31T02:52:48;7.68;;;3.70;;
58366;SDS011;57745;42.524;12.052;2023-07-31T02:55:14;8.18;;;3.95;;
58366;SDS011;57745;42.524;12.052;2023-07-31T02:57:39;9.75;;;3.70;;
58366;SDS011;57745;42.524;12.052;2023-07-31T03:00:05;7.05;;;3.47;;
58366;SDS011;57745;42.524;12.052;2023-07-31T03:02:31;7.55;;;3.47;;
58366;SDS011;57745;42.524;12.052;2023-07-31T03:04:57;8.02;;;3.42;;
58366;SDS011;57745;42.524;12.052;2023-07-31T03:07:22;7.47;;;3.60;;
58366;SDS011;57745;42.524;12.052;2023-07-31T03:09:48;4.05;;;3.20;;
58366;SDS011;57745;42.524;12.052;2023-07-31T03:12:13;6.88;;;3.72;;
58366;SDS011;57745;42.524;12.052;2023-07-31T03:14:39;9.60;;;3.75;;
58366;SDS011;57745;42.524;12.052;2023-07-31T03:17:04;5.50;;;2.75;;
58366;SDS011;57745;42.524;12.052;2023-07-31T03:19:31;10.27;;;3.58;;
58366;SDS011;57745;42.524;12.052;2023-07-31T03:21:57;6.05;;;3.20;;
58366;SDS011;57745;42.524;12.052;2023-07-31T03:24:23;6.22;;;3.00;;
58366;SDS011;57745;42.524;12.052;2023-07-31T03:26:48;4.30;;;2.70;;
58366;SDS011;57745;42.524;12.052;2023-07-31T03:29:14;8.32;;;3.33;;
58366;SDS011;57745;42.524;12.052;2023-07-31T03:31:39;8.90;;;3.03;;
58366;SDS011;57745;42.524;12.052;2023-07-31T03:34:05;5.55;;;3.10;;
58366;SDS011;57745;42.524;12.052;2023-07-31T03:36:30;5.60;;;2.78;;
58366;SDS011;57745;42.524;12.052;2023-07-31T03:38:55;7.95;;;3.20;;
58366;SDS011;57745;42.524;12.052;2023-07-31T03:41:21;6.85;;;2.97;;
58366;SDS011;57745;42.524;12.052;2023-07-31T03:43:49;7.78;;;2.83;;
58366;SDS011;57745;42.524;12.052;2023-07-31T03:46:17;7.45;;;2.70;;
58366;SDS011;57745;42.524;12.052;2023-07-31T03:48:42;4.13;;;2.47;;
58366;SDS011;57745;42.524;12.052;2023-07-31T03:51:08;5.57;;;2.47;;
58366;SDS011;57745;42.524;12.052;2023-07-31T03:53:33;5.93;;;3.00;;
58366;SDS011;57745;42.524;12.052;2023-07-31T03:55:59;6.10;;;3.33;;
58366;SDS011;57745;42.524;12.052;2023-07-31T03:58:24;7.32;;;3.05;;
58366;SDS011;57745;42.524;12.052;2023-07-31T04:00:50;4.60;;;2.85;;
58366;SDS011;57745;42.524;12.052;2023-07-31T04:03:15;5.10;;;2.47;;
58366;SDS011;57745;42.524;12.052;2023-07-31T04:05:41;9.68;;;3.13;;
58366;SDS011;57745;42.524;12.052;2023-07-31T04:08:07;5.78;;;3.03;;
58366;SDS011;57745;42.524;12.052;2023-07-31T04:10:32;6.07;;;2.60;;
58366;SDS011;57745;42.524;12.052;2023-07-31T04:12:58;6.60;;;3.00;;
58366;SDS011;57745;42.524;12.052;2023-07-31T04:15:25;6.85;;;2.72;;
58366;SDS011;57745;42.524;12.052;2023-07-31T04:17:50;5.35;;;2.97;;
58366;SDS011;57745;42.524;12.052;2023-07-31T04:20:16;6.53;;;3.00;;
58366;SDS011;57745;42.524;12.052;2023-07-31T04:22:42;4.20;;;2.70;;
58366;SDS011;57745;42.524;12.052;2023-07-31T04:25:07;10.10;;;2.92;;
58366;SDS011;57745;42.524;12.052;2023-07-31T04:27:33;7.90;;;2.42;;
58366;SDS011;57745;42.524;12.052;2023-07-31T04:29:58;5.35;;;2.70;;
58366;SDS011;57745;42.524;12.052;2023-07-31T04:32:24;7.50;;;3.03;;
58366;SDS011;57745;42.524;12.052;2023-07-31T04:34:49;7.35;;;3.53;;
58366;SDS011;57745;42.524;12.052;2023-07-31T04:37:15;3.85;;;3.05;;
58366;SDS011;57745;42.524;12.052;2023-07-31T04:39:40;4.97;;;3.33;;
58366;SDS011;57745;42.524;12.052;2023-07-31T04:42:06;6.40;;;3.08;;
58366;SDS011;57745;42.524;12.052;2023-07-31T04:44:31;5.53;;;2.85;;
58366;SDS011;57745;42.524;12.052;2023-07-31T04:46:57;8.25;;;3.00;;
58366;SDS011;57745;42.524;12.052;2023-07-31T04:49:22;6.07;;;2.28;;
58366;SDS011;57745;42.524;12.052;2023-07-31T04:51:48;4.75;;;2.10;;
58366;SDS011;57745;42.524;12.052;2023-07-31T04:54:13;6.57;;;2.60;;
58366;SDS011;57745;42.524;12.052;2023-07-31T04:56:40;8.65;;;3.15;;
58366;SDS011;57745;42.524;12.052;2023-07-31T04:59:06;4.55;;;2.20;;
58366;SDS011;57745;42.524;12.052;2023-07-31T05:01:32;3.25;;;2.20;;
58366;SDS011;57745;42.524;12.052;2023-07-31T05:03:57;3.60;;;1.77;;
58366;SDS011;57745;42.524;12.052;2023-07-31T05:06:23;5.82;;;2.08;;
58366;SDS011;57745;42.524;12.052;2023-07-31T05:08:48;3.05;;;1.80;;
58366;SDS011;57745;42.524;12.052;2023-07-31T05:11:14;3.22;;;1.58;;
58366;SDS011;57745;42.524;12.052;2023-07-31T05:13:39;2.83;;;1.80;;
58366;SDS011;57745;42.524;12.052;2023-07-31T05:16:05;2.53;;;1.83;;
58366;SDS011;57745;42.524;12.052;2023-07-31T05:18:30;4.53;;;1.98;;
58366;SDS011;57745;42.524;12.052;2023-07-31T05:20:55;3.70;;;2.00;;
58366;SDS011;57745;42.524;12.052;2023-07-31T05:23:21;3.85;;;1.85;;
58366;SDS011;57745;42.524;12.052;2023-07-31T05:25:46;5.45;;;1.80;;
58366;SDS011;57745;42.524;12.052;2023-07-31T05:28:12;5.18;;;1.85;;
58366;SDS011;57745;42.524;12.052;2023-07-31T05:30:38;4.85;;;2.08;;
58366;SDS011;57745;42.524;12.052;2023-07-31T05:33:03;5.03;;;2.22;;
58366;SDS011;57745;42.524;12.052;2023-07-31T05:35:28;4.88;;;2.25;;
58366;SDS011;57745;42.524;12.052;2023-07-31T05:37:54;3.50;;;2.08;;
58366;SDS011;57745;42.524;12.052;2023-07-31T05:40:19;4.82;;;1.77;;
58366;SDS011;57745;42.524;12.052;2023-07-31T05:42:45;2.88;;;1.80;;
58366;SDS011;57745;42.524;12.052;2023-07-31T05:45:10;4.63;;;1.92;;
58366;SDS011;57745;42.524;12.052;2023-07-31T05:47:36;3.35;;;1.90;;
58366;SDS011;57745;42.524;12.052;2023-07-31T05:50:01;2.40;;;1.67;;
58366;SDS011;57745;42.524;12.052;2023-07-31T05:52:27;3.08;;;1.92;;
58366;SDS011;57745;42.524;12.052;2023-07-31T05:54:54;3.70;;;1.83;;
58366;SDS011;57745;42.524;12.052;2023-07-31T05:57:19;4.78;;;1.70;;
58366;SDS011;57745;42.524;12.052;2023-07-31T05:59:45;3.97;;;2.00;;
58366;SDS011;57745;42.524;12.052;2023-07-31T06:02:11;5.13;;;1.70;;
58366;SDS011;57745;42.524;12.052;2023-07-31T06:04:36;3.50;;;1.70;;
58366;SDS011;57745;42.524;12.052;2023-07-31T06:07:01;3.20;;;1.83;;
58366;SDS011;57745;42.524;12.052;2023-07-31T06:09:28;2.80;;;1.73;;
58366;SDS011;57745;42.524;12.052;2023-07-31T06:11:54;2.50;;;1.63;;
58366;SDS011;57745;42.524;12.052;2023-07-31T06:14:19;4.30;;;1.75;;
58366;SDS011;57745;42.524;12.052;2023-07-31T06:16:45;6.65;;;1.90;;
58366;SDS011;57745;42.524;12.052;2023-07-31T06:19:10;3.28;;;1.85;;
58366;SDS011;57745;42.524;12.052;2023-07-31T06:21:36;4.07;;;1.90;;
58366;SDS011;57745;42.524;12.052;2023-07-31T06:24:07;4.95;;;2.20;;
58366;SDS011;57745;42.524;12.052;2023-07-31T06:26:32;7.10;;;1.92;;
58366;SDS011;57745;42.524;12.052;2023-07-31T06:28:58;3.75;;;1.63;;
58366;SDS011;57745;42.524;12.052;2023-07-31T06:31:23;5.20;;;2.17;;
58366;SDS011;57745;42.524;12.052;2023-07-31T06:33:49;3.08;;;1.60;;
58366;SDS011;57745;42.524;12.052;2023-07-31T06:36:16;4.45;;;1.65;;
58366;SDS011;57745;42.524;12.052;2023-07-31T06:38:41;8.02;;;2.30;;
58366;SDS011;57745;42.524;12.052;2023-07-31T06:41:07;5.65;;;1.60;;
58366;SDS011;57745;42.524;12.052;2023-07-31T06:43:32;3.70;;;1.63;;
58366;SDS011;57745;42.524;12.052;2023-07-31T06:46:00;5.30;;;1.75;;
58366;SDS011;57745;42.524;12.052;2023-07-31T06:50:56;3.60;;;2.22;;
58366;SDS011;57745;42.524;12.052;2023-07-31T06:53:21;3.80;;;1.77;;
58366;SDS011;57745;42.524;12.052;2023-07-31T06:55:46;4.13;;;2.30;;
58366;SDS011;57745;42.524;12.052;2023-07-31T06:58:13;3.33;;;2.05;;
58366;SDS011;57745;42.524;12.052;2023-07-31T07:00:38;3.33;;;1.90;;
58366;SDS011;57745;42.524;12.052;2023-07-31T07:03:04;3.58;;;1.73;;
58366;SDS011;57745;42.524;12.052;2023-07-31T07:05:29;4.20;;;1.90;;
58366;SDS011;57745;42.524;12.052;2023-07-31T07:07:55;2.60;;;1.95;;
58366;SDS011;57745;42.524;12.052;2023-07-31T07:10:20;5.80;;;1.83;;
58366;SDS011;57745;42.524;12.052;2023-07-31T07:12:46;2.88;;;1.50;;
58366;SDS011;57745;42.524;12.052;2023-07-31T07:15:11;2.40;;;1.70;;
58366;SDS011;57745;42.524;12.052;2023-07-31T07:17:37;3.25;;;1.77;;
58366;SDS011;57745;42.524;12.052;2023-07-31T07:20:02;6.68;;;1.90;;
58366;SDS011;57745;42.524;12.052;2023-07-31T07:22:28;3.88;;;1.73;;
58366;SDS011;57745;42.524;12.052;2023-07-31T07:24:54;6.07;;;1.90;;
58366;SDS011;57745;42.524;12.052;2023-07-31T07:27:19;3.55;;;1.63;;
58366;SDS011;57745;42.524;12.052;2023-07-31T07:29:45;5.32;;;1.90;;
58366;SDS011;57745;42.524;12.052;2023-07-31T07:32:11;4.95;;;2.00;;
58366;SDS011;57745;42.524;12.052;2023-07-31T07:34:37;2.15;;;1.70;;
58366;SDS011;57745;42.524;12.052;2023-07-31T07:37:02;5.72;;;1.90;;
58366;SDS011;57745;42.524;12.052;2023-07-31T07:39:28;3.53;;;2.08;;
58366;SDS011;57745;42.524;12.052;2023-07-31T07:41:53;3.28;;;1.90;;
58366;SDS011;57745;42.524;12.052;2023-07-31T07:44:19;4.32;;;1.77;;
58366;SDS011;57745;42.524;12.052;2023-07-31T07:46:44;2.20;;;1.85;;
58366;SDS011;57745;42.524;12.052;2023-07-31T07:49:10;2.10;;;1.90;;
58366;SDS011;57745;42.524;12.052;2023-07-31T07:51:35;4.40;;;1.52;;
58366;SDS011;57745;42.524;12.052;2023-07-31T07:54:01;4.22;;;1.83;;
58366;SDS011;57745;42.524;12.052;2023-07-31T07:56:27;3.50;;;1.95;;
58366;SDS011;57745;42.524;12.052;2023-07-31T07:58:53;2.97;;;1.98;;
58366;SDS011;57745;42.524;12.052;2023-07-31T08:01:19;3.97;;;1.92;;
58366;SDS011;57745;42.524;12.052;2023-07-31T08:03:46;5.07;;;1.95;;
58366;SDS011;57745;42.524;12.052;2023-07-31T08:06:12;6.15;;;1.92;;
58366;SDS011;57745;42.524;12.052;2023-07-31T08:08:38;2.45;;;1.90;;
58366;SDS011;57745;42.524;12.052;2023-07-31T08:11:03;6.20;;;2.08;;
58366;SDS011;57745;42.524;12.052;2023-07-31T08:13:29;4.10;;;2.00;;
58366;SDS011;57745;42.524;12.052;2023-07-31T08:15:55;4.47;;;2.08;;
58366;SDS011;57745;42.524;12.052;2023-07-31T08:18:20;4.60;;;1.77;;
58366;SDS011;57745;42.524;12.052;2023-07-31T08:20:46;6.43;;;2.17;;
58366;SDS011;57745;42.524;12.052;2023-07-31T08:23:12;2.72;;;1.83;;
58366;SDS011;57745;42.524;12.052;2023-07-31T08:25:37;5.40;;;2.10;;
58366;SDS011;57745;42.524;12.052;2023-07-31T08:28:03;5.00;;;1.65;;
58366;SDS011;57745;42.524;12.052;2023-07-31T08:30:29;3.35;;;1.90;;
58366;SDS011;57745;42.524;12.052;2023-07-31T08:32:55;4.10;;;1.90;;
58366;SDS011;57745;42.524;12.052;2023-07-31T08:35:21;2.00;;;1.63;;
58366;SDS011;57745;42.524;12.052;2023-07-31T08:37:47;2.88;;;1.80;;
58366;SDS011;57745;42.524;12.052;2023-07-31T08:40:12;4.13;;;1.90;;
58366;SDS011;57745;42.524;12.052;2023-07-31T08:42:45;8.02;;;2.20;;
58366;SDS011;57745;42.524;12.052;2023-07-31T08:45:18;5.10;;;1.83;;
58366;SDS011;57745;42.524;12.052;2023-07-31T08:47:44;4.60;;;1.80;;
58366;SDS011;57745;42.524;12.052;2023-07-31T08:50:12;3.75;;;1.90;;
58366;SDS011;57745;42.524;12.052;2023-07-31T08:52:38;4.57;;;1.88;;
58366;SDS011;57745;42.524;12.052;2023-07-31T08:55:04;2.45;;;1.73;;
58366;SDS011;57745;42.524;12.052;2023-07-31T08:57:31;3.95;;;1.90;;
58366;SDS011;57745;42.524;12.052;2023-07-31T08:59:57;3.03;;;1.80;;
58366;SDS011;57745;42.524;12.052;2023-07-31T09:02:23;2.38;;;1.60;;
58366;SDS011;57745;42.524;12.052;2023-07-31T09:04:54;3.33;;;1.77;;
58366;SDS011;57745;42.524;12.052;2023-07-31T09:07:19;3.88;;;2.10;;
58366;SDS011;57745;42.524;12.052;2023-07-31T09:09:46;4.63;;;1.70;;
58366;SDS011;57745;42.524;12.052;2023-07-31T09:12:12;2.67;;;1.80;;
58366;SDS011;57745;42.524;12.052;2023-07-31T09:14:37;3.80;;;1.90;;
58366;SDS011;57745;42.524;12.052;2023-07-31T09:17:04;2.88;;;2.15;;
58366;SDS011;57745;42.524;12.052;2023-07-31T09:19:32;3.00;;;2.00;;
58366;SDS011;57745;42.524;12.052;2023-07-31T09:21:59;3.47;;;1.80;;
58366;SDS011;57745;42.524;12.052;2023-07-31T09:24:26;3.55;;;2.22;;
58366;SDS011;57745;42.524;12.052;2023-07-31T09:26:53;2.55;;;1.73;;
58366;SDS011;57745;42.524;12.052;2023-07-31T09:29:21;3.20;;;2.20;;
58366;SDS011;57745;42.524;12.052;2023-07-31T09:31:47;2.92;;;2.42;;
58366;SDS011;57745;42.524;12.052;2023-07-31T09:34:13;6.13;;;2.22;;
58366;SDS011;57745;42.524;12.052;2023-07-31T09:39:09;4.07;;;1.90;;
58366;SDS011;57745;42.524;12.052;2023-07-31T09:41:36;3.55;;;1.83;;
58366;SDS011;57745;42.524;12.052;2023-07-31T09:44:03;5.38;;;2.50;;
58366;SDS011;57745;42.524;12.052;2023-07-31T09:46:29;4.25;;;1.90;;
58366;SDS011;57745;42.524;12.052;2023-07-31T09:49:11;3.63;;;2.50;;
58366;SDS011;57745;42.524;12.052;2023-07-31T09:51:40;4.97;;;2.03;;
58366;SDS011;57745;42.524;12.052;2023-07-31T09:56:43;3.75;;;1.90;;
58366;SDS011;57745;42.524;12.052;2023-07-31T09:59:16;3.70;;;2.10;;
58366;SDS011;57745;42.524;12.052;2023-07-31T10:01:45;4.60;;;2.40;;
58366;SDS011;57745;42.524;12.052;2023-07-31T10:04:12;7.10;;;2.20;;
58366;SDS011;57745;42.524;12.052;2023-07-31T10:06:38;4.43;;;2.20;;
58366;SDS011;57745;42.524;12.052;2023-07-31T10:09:06;3.55;;;1.80;;
58366;SDS011;57745;42.524;12.052;2023-07-31T10:11:40;3.58;;;2.00;;
58366;SDS011;57745;42.524;12.052;2023-07-31T10:14:09;6.65;;;2.50;;
58366;SDS011;57745;42.524;12.052;2023-07-31T10:16:37;2.20;;;1.70;;
58366;SDS011;57745;42.524;12.052;2023-07-31T10:19:03;3.67;;;2.13;;
58366;SDS011;57745;42.524;12.052;2023-07-31T10:21:30;3.58;;;1.70;;
58366;SDS011;57745;42.524;12.052;2023-07-31T10:24:01;3.45;;;2.10;;
58366;SDS011;57745;42.524;12.052;2023-07-31T10:26:29;2.55;;;2.13;;
58366;SDS011;57745;42.524;12.052;2023-07-31T10:28:56;3.33;;;1.85;;
58366;SDS011;57745;42.524;12.052;2023-07-31T10:31:23;3.05;;;2.10;;
58366;SDS011;57745;42.524;12.052;2023-07-31T10:33:50;3.55;;;2.45;;
58366;SDS011;57745;42.524;12.052;2023-07-31T10:36:20;2.33;;;1.85;;
58366;SDS011;57745;42.524;12.052;2023-07-31T10:38:48;2.75;;;1.98;;
58366;SDS011;57745;42.524;12.052;2023-07-31T10:41:15;5.38;;;2.60;;
58366;SDS011;57745;42.524;12.052;2023-07-31T10:43:41;3.15;;;1.83;;
58366;SDS011;57745;42.524;12.052;2023-07-31T10:46:07;2.80;;;1.85;;
58366;SDS011;57745;42.524;12.052;2023-07-31T10:48:34;2.70;;;1.88;;
58366;SDS011;57745;42.524;12.052;2023-07-31T10:51:02;2.47;;;1.80;;
58366;SDS011;57745;42.524;12.052;2023-07-31T10:53:33;2.83;;;1.90;;
58366;SDS011;57745;42.524;12.052;2023-07-31T10:56:04;2.38;;;2.15;;
58366;SDS011;57745;42.524;12.052;2023-07-31T10:58:32;3.47;;;1.77;;
58366;SDS011;57745;42.524;12.052;2023-07-31T11:00:59;3.40;;;2.05;;
58366;SDS011;57745;42.524;12.052;2023-07-31T11:03:45;2.50;;;2.20;;
58366;SDS011;57745;42.524;12.052;2023-07-31T11:06:12;2.33;;;1.85;;
58366;SDS011;57745;42.524;12.052;2023-07-31T11:08:42;2.35;;;1.83;;
58366;SDS011;57745;42.524;12.052;2023-07-31T11:11:10;2.70;;;2.13;;
58366;SDS011;57745;42.524;12.052;2023-07-31T11:13:47;2.20;;;1.83;;
58366;SDS011;57745;42.524;12.052;2023-07-31T11:16:18;2.90;;;1.95;;
58366;SDS011;57745;42.524;12.052;2023-07-31T11:18:45;2.10;;;1.90;;
58366;SDS011;57745;42.524;12.052;2023-07-31T11:21:16;1.90;;;1.60;;
58366;SDS011;57745;42.524;12.052;2023-07-31T11:23:49;3.35;;;1.80;;
58366;SDS011;57745;42.524;12.052;2023-07-31T11:26:16;3.97;;;2.20;;
58366;SDS011;57745;42.524;12.052;2023-07-31T11:28:42;3.38;;;2.10;;
58366;SDS011;57745;42.524;12.052;2023-07-31T11:31:09;3.67;;;2.20;;
58366;SDS011;57745;42.524;12.052;2023-07-31T11:33:35;2.20;;;2.00;;
58366;SDS011;57745;42.524;12.052;2023-07-31T11:36:00;2.90;;;1.63;;
58366;SDS011;57745;42.524;12.052;2023-07-31T11:38:27;5.38;;;1.70;;
58366;SDS011;57745;42.524;12.052;2023-07-31T11:40:55;2.78;;;1.90;;
58366;SDS011;57745;42.524;12.052;2023-07-31T11:43:25;3.08;;;2.00;;
58366;SDS011;57745;42.524;12.052;2023-07-31T11:45:52;3.88;;;2.15;;
58366;SDS011;57745;42.524;12.052;2023-07-31T11:48:24;2.53;;;2.22;;
58366;SDS011;57745;42.524;12.052;2023-07-31T11:50:52;3.70;;;1.80;;
58366;SDS011;57745;42.524;12.052;2023-07-31T11:53:22;2.33;;;1.90;;
58366;SDS011;57745;42.524;12.052;2023-07-31T11:56:10;4.38;;;1.80;;
58366;SDS011;57745;42.524;12.052;2023-07-31T11:58:38;3.83;;;1.88;;
58366;SDS011;57745;42.524;12.052;2023-07-31T12:01:04;4.90;;;2.85;;
58366;SDS011;57745;42.524;12.052;2023-07-31T12:03:30;2.45;;;2.03;;
58366;SDS011;57745;42.524;12.052;2023-07-31T12:05:58;4.57;;;2.40;;
58366;SDS011;57745;42.524;12.052;2023-07-31T12:08:24;3.35;;;2.20;;
58366;SDS011;57745;42.524;12.052;2023-07-31T12:10:50;3.90;;;2.10;;
58366;SDS011;57745;42.524;12.052;2023-07-31T12:13:21;3.22;;;2.33;;
58366;SDS011;57745;42.524;12.052;2023-07-31T12:15:54;3.20;;;1.80;;
58366;SDS011;57745;42.524;12.052;2023-07-31T12:18:22;3.17;;;1.80;;
58366;SDS011;57745;42.524;12.052;2023-07-31T12:20:54;2.72;;;2.10;;
58366;SDS011;57745;42.524;12.052;2023-07-31T12:23:21;3.15;;;2.00;;
58366;SDS011;57745;42.524;12.052;2023-07-31T12:26:00;3.25;;;2.10;;
58366;SDS011;57745;42.524;12.052;2023-07-31T12:31:02;2.25;;;2.00;;
58366;SDS011;57745;42.524;12.052;2023-07-31T12:33:31;2.47;;;2.10;;
58366;SDS011;57745;42.524;12.052;2023-07-31T12:35:58;3.00;;;2.35;;
58366;SDS011;57745;42.524;12.052;2023-07-31T12:38:25;2.58;;;1.85;;
58366;SDS011;57745;42.524;12.052;2023-07-31T12:40:51;2.63;;;1.80;;
58366;SDS011;57745;42.524;12.052;2023-07-31T12:43:16;2.35;;;1.92;;
58366;SDS011;57745;42.524;12.052;2023-07-31T12:45:42;2.67;;;1.77;;
58366;SDS011;57745;42.524;12.052;2023-07-31T12:48:07;2.58;;;1.98;;
58366;SDS011;57745;42.524;12.052;2023-07-31T12:50:33;3.03;;;1.80;;
58366;SDS011;57745;42.524;12.052;2023-07-31T12:53:01;2.45;;;1.80;;
58366;SDS011;57745;42.524;12.052;2023-07-31T12:55:28;3.30;;;2.08;;
58366;SDS011;57745;42.524;12.052;2023-07-31T12:57:55;3.70;;;2.00;;
58366;SDS011;57745;42.524;12.052;2023-07-31T13:00:20;4.00;;;2.10;;
58366;SDS011;57745;42.524;12.052;2023-07-31T13:02:46;3.80;;;2.60;;
58366;SDS011;57745;42.524;12.052;2023-07-31T13:05:12;4.03;;;2.22;;
58366;SDS011;57745;42.524;12.052;2023-07-31T13:07:38;4.35;;;2.20;;
58366;SDS011;57745;42.524;12.052;2023-07-31T13:10:04;6.68;;;2.33;;
58366;SDS011;57745;42.524;12.052;2023-07-31T13:12:30;4.00;;;2.03;;
58366;SDS011;57745;42.524;12.052;2023-07-31T13:14:56;3.17;;;2.22;;
58366;SDS011;57745;42.524;12.052;2023-07-31T13:17:22;4.65;;;2.20;;
58366;SDS011;57745;42.524;12.052;2023-07-31T13:19:47;2.20;;;1.85;;
58366;SDS011;57745;42.524;12.052;2023-07-31T13:22:12;3.00;;;2.15;;
58366;SDS011;57745;42.524;12.052;2023-07-31T13:24:38;3.53;;;1.98;;
58366;SDS011;57745;42.524;12.052;2023-07-31T13:27:03;3.95;;;2.03;;
58366;SDS011;57745;42.524;12.052;2023-07-31T13:29:29;3.08;;;2.00;;
58366;SDS011;57745;42.524;12.052;2023-07-31T13:31:55;5.72;;;2.25;;
58366;SDS011;57745;42.524;12.052;2023-07-31T13:34:20;8.73;;;2.17;;
58366;SDS011;57745;42.524;12.052;2023-07-31T13:36:46;2.63;;;1.90;;
58366;SDS011;57745;42.524;12.052;2023-07-31T13:39:11;5.43;;;2.10;;
58366;SDS011;57745;42.524;12.052;2023-07-31T13:41:37;2.30;;;2.00;;
58366;SDS011;57745;42.524;12.052;2023-07-31T13:44:03;4.35;;;2.00;;
58366;SDS011;57745;42.524;12.052;2023-07-31T13:46:28;3.40;;;2.05;;
58366;SDS011;57745;42.524;12.052;2023-07-31T13:48:54;3.00;;;1.73;;
58366;SDS011;57745;42.524;12.052;2023-07-31T13:51:21;2.83;;;2.17;;
58366;SDS011;57745;42.524;12.052;2023-07-31T13:53:46;3.83;;;2.30;;
58366;SDS011;57745;42.524;12.052;2023-07-31T13:56:12;4.78;;;2.40;;
58366;SDS011;57745;42.524;12.052;2023-07-31T13:58:38;3.45;;;2.22;;
58366;SDS011;57745;42.524;12.052;2023-07-31T14:01:04;2.75;;;2.40;;
58366;SDS011;57745;42.524;12.052;2023-07-31T14:03:30;3.08;;;2.20;;
58366;SDS011;57745;42.524;12.052;2023-07-31T14:05:55;4.18;;;2.00;;
58366;SDS011;57745;42.524;12.052;2023-07-31T14:08:21;3.05;;;1.90;;
58366;SDS011;57745;42.524;12.052;2023-07-31T14:10:47;5.68;;;2.17;;
58366;SDS011;57745;42.524;12.052;2023-07-31T14:13:12;3.03;;;2.03;;
58366;SDS011;57745;42.524;12.052;2023-07-31T14:15:38;3.40;;;2.13;;
58366;SDS011;57745;42.524;12.052;2023-07-31T14:18:07;2.85;;;2.03;;
58366;SDS011;57745;42.524;12.052;2023-07-31T14:20:32;3.72;;;2.10;;
58366;SDS011;57745;42.524;12.052;2023-07-31T14:22:58;3.65;;;2.25;;
58366;SDS011;57745;42.524;12.052;2023-07-31T14:25:24;5.30;;;2.30;;
58366;SDS011;57745;42.524;12.052;2023-07-31T14:27:49;2.70;;;2.10;;
58366;SDS011;57745;42.524;12.052;2023-07-31T14:30:15;3.35;;;2.33;;
58366;SDS011;57745;42.524;12.052;2023-07-31T14:32:41;2.97;;;1.80;;
58366;SDS011;57745;42.524;12.052;2023-07-31T14:35:07;4.25;;;2.22;;
58366;SDS011;57745;42.524;12.052;2023-07-31T14:37:39;4.90;;;2.45;;
58366;SDS011;57745;42.524;12.052;2023-07-31T14:40:06;2.60;;;2.08;;
58366;SDS011;57745;42.524;12.052;2023-07-31T14:42:33;4.05;;;2.00;;
58366;SDS011;57745;42.524;12.052;2023-07-31T14:44:59;5.22;;;2.08;;
58366;SDS011;57745;42.524;12.052;2023-07-31T14:47:24;2.53;;;1.92;;